createdAt,value
2022-09-23T00:00:48.244Z,101552.94
2022-09-23T00:03:36.463Z,101551.44
2022-09-23T00:06:06.385Z,101558.56
2022-09-23T00:08:32.995Z,101548.75
2022-09-23T00:11:13.742Z,101552.81
2022-09-23T00:13:42.253Z,101555.00
2022-09-23T00:16:15.169Z,101558.03
2022-09-23T00:18:42.116Z,101551.25
2022-09-23T00:21:11.425Z,101550.16
2022-09-23T00:23:39.762Z,101554.47
2022-09-23T00:26:08.771Z,101548.22
2022-09-23T00:28:35.608Z,101549.28
2022-09-23T00:31:06.891Z,101552.75
2022-09-23T00:33:33.317Z,101548.69
2022-09-23T00:36:01.222Z,101548.38
2022-09-23T00:38:27.881Z,101553.31
2022-09-23T00:40:54.378Z,101547.38
2022-09-23T00:43:43.878Z,101551.06
2022-09-23T00:46:15.875Z,101543.63
2022-09-23T00:48:43.300Z,101545.56
2022-09-23T00:51:12.798Z,101554.06
2022-09-23T00:53:39.885Z,101536.28
2022-09-23T00:56:09.864Z,101541.03
2022-09-23T00:58:40.255Z,101535.00
2022-09-23T01:01:06.954Z,101537.69
2022-09-23T01:03:33.721Z,101535.97
2022-09-23T01:06:00.089Z,101528.75
2022-09-23T01:08:27.259Z,101527.50
2022-09-23T01:11:14.683Z,101526.09
2022-09-23T01:14:11.665Z,101527.94
2022-09-23T01:16:42.873Z,101516.81
2022-09-23T01:19:43.358Z,101520.16
2022-09-23T01:22:18.843Z,101524.16
2022-09-23T01:24:47.084Z,101524.06
2022-09-23T01:27:22.355Z,101524.81
2022-09-23T01:30:10.860Z,101522.53
2022-09-23T01:32:58.642Z,101522.75
2022-09-23T01:35:56.701Z,101527.16
2022-09-23T01:38:52.114Z,101520.72
2022-09-23T01:41:49.176Z,101525.44
2022-09-23T01:44:32.976Z,101519.41
2022-09-23T01:47:10.133Z,101514.34
2022-09-23T01:49:43.145Z,101526.09
2022-09-23T01:52:17.971Z,101522.31
2022-09-23T01:55:11.719Z,101525.44
2022-09-23T01:57:48.558Z,101513.59
2022-09-23T02:00:17.693Z,101511.88
2022-09-23T02:02:50.712Z,101509.28
2022-09-23T02:05:46.716Z,101508.41
2022-09-23T02:08:18.869Z,101511.13
2022-09-23T02:10:51.465Z,101506.91
2022-09-23T02:13:29.242Z,101507.34
2022-09-23T02:16:00.723Z,101504.31
2022-09-23T02:18:45.398Z,101503.56
2022-09-23T02:21:13.814Z,101501.22
2022-09-23T02:23:50.063Z,101502.19
2022-09-23T02:26:35.189Z,101500.34
2022-09-23T02:29:14.089Z,101499.91
2022-09-23T02:31:53.002Z,101499.16
2022-09-23T02:34:31.199Z,101504.75
2022-09-23T02:37:05.713Z,101509.59
2022-09-23T02:39:59.810Z,101505.06
2022-09-23T02:42:41.648Z,101499.16
2022-09-23T02:45:08.388Z,101492.69
2022-09-23T02:47:38.928Z,101495.50
2022-09-23T02:50:05.823Z,101495.38
2022-09-23T02:52:32.768Z,101500.22
2022-09-23T02:55:00.160Z,101493.13
2022-09-23T02:57:26.422Z,101499.56
2022-09-23T02:59:53.004Z,101500.09
2022-09-23T03:02:35.483Z,101498.91
2022-09-23T03:05:24.007Z,101493.84
2022-09-23T03:08:03.199Z,101494.38
2022-09-23T03:10:41.442Z,101497.50
2022-09-23T03:14:04.359Z,101495.97
2022-09-23T03:16:43.504Z,101490.59
2022-09-23T03:19:24.944Z,101485.31
2022-09-23T03:22:30.557Z,101497.66
2022-09-23T03:25:06.372Z,101493.91
2022-09-23T03:27:35.197Z,101488.13
2022-09-23T03:30:02.940Z,101489.59
2022-09-23T03:32:31.321Z,101489.94
2022-09-23T03:35:00.178Z,101486.38
2022-09-23T03:37:35.067Z,101486.91
2022-09-23T03:40:10.244Z,101480.78
2022-09-23T03:42:38.157Z,101481.13
2022-09-23T03:45:10.117Z,101473.66
2022-09-23T03:47:38.696Z,101482.50
2022-09-23T03:50:05.635Z,101478.63
2022-09-23T03:52:32.067Z,101474.97
2022-09-23T03:54:58.268Z,101479.28
2022-09-23T03:57:25.052Z,101467.88
2022-09-23T03:59:52.474Z,101462.50
2022-09-23T04:02:20.033Z,101457.72
2022-09-23T04:04:46.431Z,101455.34
2022-09-23T04:07:13.206Z,101452.56
2022-09-23T04:09:39.908Z,101456.22
2022-09-23T04:12:07.146Z,101456.22
2022-09-23T04:14:33.705Z,101453.06
2022-09-23T04:16:59.848Z,101450.50
2022-09-23T04:19:26.034Z,101447.59
2022-09-23T04:21:52.415Z,101452.41
2022-09-23T04:24:18.682Z,101452.97
2022-09-23T04:26:44.896Z,101452.31
2022-09-23T04:29:11.340Z,101455.09
2022-09-23T04:31:37.983Z,101451.06
2022-09-23T04:34:04.211Z,101443.00
2022-09-23T04:36:30.765Z,101442.34
2022-09-23T04:38:57.269Z,101447.50
2022-09-23T04:41:23.786Z,101452.78
2022-09-23T04:43:50.254Z,101441.28
2022-09-23T04:46:17.019Z,101448.22
2022-09-23T04:48:43.996Z,101448.00
2022-09-23T04:51:12.155Z,101439.19
2022-09-23T04:53:41.487Z,101447.03
2022-09-23T04:56:17.919Z,101446.75
2022-09-23T04:58:45.568Z,101439.66
2022-09-23T05:01:12.207Z,101450.03
2022-09-23T05:03:40.258Z,101446.06
2022-09-23T05:06:07.286Z,101444.91
2022-09-23T05:08:34.492Z,101445.25
2022-09-23T05:11:04.145Z,101445.69
2022-09-23T05:13:31.955Z,101455.16
2022-09-23T05:16:03.672Z,101449.97
2022-09-23T05:18:31.332Z,101449.75
2022-09-23T05:20:58.323Z,101453.53
2022-09-23T05:23:24.660Z,101456.22
2022-09-23T05:26:02.989Z,101452.88
2022-09-23T05:28:31.800Z,101463.06
2022-09-23T05:31:08.898Z,101455.09
2022-09-23T05:33:36.302Z,101459.00
2022-09-23T05:36:04.006Z,101454.59
2022-09-23T05:38:31.200Z,101456.13
2022-09-23T05:41:05.820Z,101452.16
2022-09-23T05:43:32.754Z,101456.91
2022-09-23T05:46:07.164Z,101451.50
2022-09-23T05:48:35.676Z,101457.53
2022-09-23T05:51:03.591Z,101464.88
2022-09-23T05:53:30.202Z,101457.69
2022-09-23T05:55:57.370Z,101458.88
2022-09-23T05:58:24.506Z,101463.19
2022-09-23T06:00:51.131Z,101454.34
2022-09-23T06:03:20.079Z,101458.34
2022-09-23T06:05:47.724Z,101457.69
2022-09-23T06:08:14.644Z,101455.41
2022-09-23T06:10:44.427Z,101458.56
2022-09-23T06:13:11.376Z,101455.31
2022-09-23T06:15:38.472Z,101450.50
2022-09-23T06:18:06.122Z,101448.09
2022-09-23T06:20:34.417Z,101449.25
2022-09-23T06:23:09.080Z,101445.03
2022-09-23T06:25:37.873Z,101454.25
2022-09-23T06:28:06.164Z,101451.66
2022-09-23T06:30:34.073Z,101447.78
2022-09-23T06:33:02.282Z,101449.22
2022-09-23T06:35:28.700Z,101449.34
2022-09-23T06:37:54.961Z,101450.97
2022-09-23T06:40:23.110Z,101460.81
2022-09-23T06:42:57.529Z,101451.22
2022-09-23T06:45:24.132Z,101457.13
2022-09-23T06:47:57.217Z,101443.81
2022-09-23T06:50:27.346Z,101442.31
2022-09-23T06:52:55.418Z,101437.22
2022-09-23T06:55:27.095Z,101437.31
2022-09-23T06:57:57.284Z,101439.47
2022-09-23T07:00:25.648Z,101429.44
2022-09-23T07:02:54.056Z,101419.06
2022-09-23T07:05:21.622Z,101432.25
2022-09-23T07:07:48.229Z,101429.63
2022-09-23T07:10:14.495Z,101424.19
2022-09-23T07:12:41.006Z,101423.97
2022-09-23T07:15:09.065Z,101433.47
2022-09-23T07:17:35.528Z,101434.09
2022-09-23T07:20:02.331Z,101434.97
2022-09-23T07:22:28.836Z,101430.31
2022-09-23T07:24:55.343Z,101435.06
2022-09-23T07:27:26.171Z,101439.13
2022-09-23T07:29:53.242Z,101436.41
2022-09-23T07:32:21.297Z,101432.00
2022-09-23T07:34:48.305Z,101433.28
2022-09-23T07:37:16.509Z,101422.88
2022-09-23T07:39:43.755Z,101435.16
2022-09-23T07:42:11.719Z,101442.41
2022-09-23T07:44:38.747Z,101449.13
2022-09-23T07:47:05.434Z,101440.25
2022-09-23T07:49:34.751Z,101435.09
2022-09-23T07:52:01.459Z,101448.81
2022-09-23T07:54:29.081Z,101451.97
2022-09-23T07:56:55.947Z,101457.25
2022-09-23T07:59:22.349Z,101452.63
2022-09-23T08:01:51.813Z,101450.47
2022-09-23T08:04:22.162Z,101450.19
2022-09-23T08:06:54.363Z,101448.59
2022-09-23T08:09:24.375Z,101445.13
2022-09-23T08:11:51.755Z,101449.53
2022-09-23T08:14:18.289Z,101441.47
2022-09-23T08:16:46.403Z,101440.00
2022-09-23T08:19:13.600Z,101447.88
2022-09-23T08:21:41.082Z,101444.22
2022-09-23T08:24:10.919Z,101444.47
2022-09-23T08:26:37.618Z,101445.97
2022-09-23T08:29:04.710Z,101442.41
2022-09-23T08:31:32.234Z,101446.16
2022-09-23T08:33:59.133Z,101445.75
2022-09-23T08:36:26.203Z,101447.31
2022-09-23T08:38:53.499Z,101447.88
2022-09-23T08:41:46.949Z,101448.56
2022-09-23T08:44:19.634Z,101435.72
2022-09-23T08:47:05.575Z,101432.94
2022-09-23T08:49:40.900Z,101430.59
2022-09-23T08:52:23.176Z,101435.22
2022-09-23T08:54:54.567Z,101435.50
2022-09-23T08:57:36.227Z,101421.38
2022-09-23T09:00:03.889Z,101420.75
2022-09-23T09:02:34.553Z,101423.63
2022-09-23T09:05:07.366Z,101423.69
2022-09-23T09:07:38.456Z,101425.75
2022-09-23T09:10:05.663Z,101421.69
2022-09-23T09:13:18.775Z,101416.19
2022-09-23T09:16:10.619Z,101422.72
2022-09-23T09:18:44.521Z,101420.72
2022-09-23T09:21:12.556Z,101421.00
2022-09-23T09:23:56.372Z,101419.81
2022-09-23T09:26:33.184Z,101416.19
2022-09-23T09:29:30.895Z,101414.03
2022-09-23T09:31:56.875Z,101412.94
2022-09-23T09:34:43.217Z,101407.59
2022-09-23T09:37:18.057Z,101408.81
2022-09-23T09:39:44.268Z,101405.47
2022-09-23T09:42:19.530Z,101400.72
2022-09-23T09:44:53.465Z,101405.69
2022-09-23T09:47:38.502Z,101394.75
2022-09-23T09:50:13.276Z,101395.25
2022-09-23T09:52:41.952Z,101390.75
2022-09-23T09:55:13.918Z,101396.00
2022-09-23T09:57:49.713Z,101386.41
2022-09-23T10:00:21.719Z,101390.16
2022-09-23T10:03:03.334Z,101383.06
2022-09-23T10:05:33.009Z,101382.38
2022-09-23T10:08:17.706Z,101382.81
2022-09-23T10:11:06.238Z,101383.25
2022-09-23T10:13:33.166Z,101377.75
2022-09-23T10:16:03.112Z,101383.63
2022-09-23T10:18:49.476Z,101375.25
2022-09-23T10:21:21.283Z,101380.56
2022-09-23T10:23:53.603Z,101375.78
2022-09-23T10:26:32.428Z,101377.13
2022-09-23T10:29:02.775Z,101362.53
2022-09-23T10:31:34.252Z,101365.44
2022-09-23T10:34:25.713Z,101367.38
2022-09-23T10:37:02.528Z,101363.31
2022-09-23T10:39:47.253Z,101365.56
2022-09-23T10:42:38.339Z,101366.75
2022-09-23T10:45:43.336Z,101366.25
2022-09-23T10:48:35.185Z,101364.72
2022-09-23T10:51:25.490Z,101358.00
2022-09-23T10:54:31.396Z,101356.31
2022-09-23T10:57:26.095Z,101351.88
2022-09-23T11:00:02.787Z,101346.00
2022-09-23T11:02:41.404Z,101348.09
2022-09-23T11:05:40.593Z,101341.97
2022-09-23T11:08:26.661Z,101334.84
2022-09-23T11:11:02.241Z,101340.28
2022-09-23T11:13:54.424Z,101325.63
2022-09-23T11:16:31.204Z,101334.50
2022-09-23T11:19:16.552Z,101325.66
2022-09-23T11:22:15.221Z,101316.53
2022-09-23T11:25:06.075Z,101318.00
2022-09-23T11:28:09.593Z,101312.66
2022-09-23T11:30:43.242Z,101315.84
2022-09-23T11:33:39.635Z,101306.03
2022-09-23T11:36:11.310Z,101304.34
2022-09-23T11:38:43.588Z,101305.16
2022-09-23T11:41:20.965Z,101301.56
2022-09-23T11:43:54.022Z,101301.72
2022-09-23T11:46:28.338Z,101296.84
2022-09-23T11:48:57.962Z,101293.78
2022-09-23T11:51:31.252Z,101292.91
2022-09-23T11:54:06.749Z,101279.22
2022-09-23T11:56:40.812Z,101288.78
2022-09-23T11:59:36.822Z,101286.53
2022-09-23T12:02:31.092Z,101281.72
2022-09-23T12:05:04.394Z,101280.47
2022-09-23T12:07:43.510Z,101267.94
2022-09-23T12:10:11.204Z,101272.28
2022-09-23T12:13:01.966Z,101266.16
2022-09-23T12:16:09.239Z,101262.53
2022-09-23T12:19:05.273Z,101265.59
2022-09-23T12:21:53.025Z,101262.59
2022-09-23T12:24:46.286Z,101252.66
2022-09-23T12:27:36.199Z,101250.88
2022-09-23T12:30:12.280Z,101249.94
2022-09-23T12:32:41.052Z,101250.63
2022-09-23T12:35:21.497Z,101245.47
2022-09-23T12:37:48.638Z,101246.13
2022-09-23T12:40:42.916Z,101244.97
2022-09-23T12:43:35.915Z,101237.53
2022-09-23T12:46:25.153Z,101232.50
2022-09-23T12:48:59.843Z,101230.53
2022-09-23T12:51:33.972Z,101229.56
2022-09-23T12:54:03.539Z,101221.66
2022-09-23T12:56:36.014Z,101216.84
2022-09-23T12:59:17.239Z,101221.00
2022-09-23T13:01:43.971Z,101219.47
2022-09-23T13:04:49.712Z,101220.50
2022-09-23T13:07:30.179Z,101212.63
2022-09-23T13:10:28.163Z,101215.41
2022-09-23T13:12:57.229Z,101201.75
2022-09-23T13:15:34.853Z,101203.47
2022-09-23T13:18:50.008Z,101206.13
2022-09-23T13:21:38.571Z,101188.69
2022-09-23T13:24:24.202Z,101192.41
2022-09-23T13:26:54.055Z,101182.97
2022-09-23T13:29:27.864Z,101187.41
2022-09-23T13:31:56.953Z,101177.41
2022-09-23T13:34:30.213Z,101182.69
2022-09-23T13:36:56.748Z,101180.22
2022-09-23T13:39:25.663Z,101170.94
2022-09-23T13:41:54.859Z,101167.00
2022-09-23T13:44:21.579Z,101163.66
2022-09-23T13:46:51.466Z,101172.00
2022-09-23T13:49:33.324Z,101159.31
2022-09-23T13:52:01.528Z,101163.13
2022-09-23T13:54:35.838Z,101163.97
2022-09-23T13:57:02.917Z,101160.63
2022-09-23T13:59:30.752Z,101149.31
2022-09-23T14:02:14.558Z,101156.44
2022-09-23T14:04:43.274Z,101144.38
2022-09-23T14:07:13.402Z,101152.84
2022-09-23T14:09:47.118Z,101140.94
2022-09-23T14:12:21.119Z,101149.84
2022-09-23T14:14:50.954Z,101145.41
2022-09-23T14:17:22.173Z,101149.84
2022-09-23T14:19:49.701Z,101143.50
2022-09-23T14:22:27.371Z,101144.25
2022-09-23T14:24:55.622Z,101143.88
2022-09-23T14:27:33.102Z,101138.88
2022-09-23T14:30:02.366Z,101137.91
2022-09-23T14:32:31.447Z,101138.78
2022-09-23T14:35:02.577Z,101128.19
2022-09-23T14:37:51.203Z,101126.47
2022-09-23T14:40:33.566Z,101126.56
2022-09-23T14:43:15.640Z,101125.19
2022-09-23T14:45:46.647Z,101123.88
2022-09-23T14:48:16.897Z,101117.78
2022-09-23T14:50:49.777Z,101109.75
2022-09-23T14:53:19.191Z,101114.75
2022-09-23T14:55:56.653Z,101108.50
2022-09-23T14:58:27.821Z,101106.50
2022-09-23T15:00:56.713Z,101106.50
2022-09-23T15:03:23.092Z,101108.91
2022-09-23T15:05:57.177Z,101107.78
2022-09-23T15:08:26.447Z,101108.31
2022-09-23T15:10:53.352Z,101107.09
2022-09-23T15:13:23.394Z,101105.50
2022-09-23T15:15:53.583Z,101106.19
2022-09-23T15:18:24.631Z,101101.38
2022-09-23T15:20:55.185Z,101101.19
2022-09-23T15:23:43.959Z,101092.50
2022-09-23T15:26:14.719Z,101096.28
2022-09-23T15:28:41.763Z,101091.91
2022-09-23T15:31:12.918Z,101097.00
2022-09-23T15:33:39.138Z,101091.81
2022-09-23T15:36:05.717Z,101088.81
2022-09-23T15:38:32.258Z,101085.13
2022-09-23T15:40:58.700Z,101089.25
2022-09-23T15:43:26.814Z,101081.59
2022-09-23T15:45:56.926Z,101088.94
2022-09-23T15:48:27.225Z,101080.06
2022-09-23T15:50:54.094Z,101083.16
2022-09-23T15:53:23.551Z,101075.13
2022-09-23T15:55:51.169Z,101081.97
2022-09-23T15:58:19.798Z,101083.34
2022-09-23T16:00:55.683Z,101081.81
2022-09-23T16:03:32.766Z,101083.88
2022-09-23T16:06:02.413Z,101077.75
2022-09-23T16:08:31.616Z,101084.59
2022-09-23T16:10:58.284Z,101090.72
2022-09-23T16:13:24.769Z,101088.19
2022-09-23T16:15:51.172Z,101081.34
2022-09-23T16:18:17.589Z,101082.09
2022-09-23T16:20:45.618Z,101073.06
2022-09-23T16:23:34.909Z,101071.22
2022-09-23T16:26:30.780Z,101071.56
2022-09-23T16:28:58.849Z,101065.97
2022-09-23T16:31:28.901Z,101065.81
2022-09-23T16:33:55.905Z,101069.06
2022-09-23T16:36:26.981Z,101063.25
2022-09-23T16:38:56.850Z,101065.31
2022-09-23T16:41:36.550Z,101061.72
2022-09-23T16:44:05.986Z,101063.25
2022-09-23T16:46:33.673Z,101058.91
2022-09-23T16:49:00.539Z,101064.16
2022-09-23T16:51:29.533Z,101068.34
2022-09-23T16:53:58.107Z,101065.34
2022-09-23T16:56:28.810Z,101063.94
2022-09-23T16:58:56.114Z,101057.75
2022-09-23T17:01:44.552Z,101059.25
2022-09-23T17:04:13.030Z,101056.34
2022-09-23T17:06:50.356Z,101067.19
2022-09-23T17:09:19.230Z,101060.19
2022-09-23T17:11:52.288Z,101065.53
2022-09-23T17:14:18.629Z,101060.94
2022-09-23T17:16:44.878Z,101063.13
2022-09-23T17:19:11.777Z,101064.88
2022-09-23T17:21:38.515Z,101061.41
2022-09-23T17:24:05.317Z,101057.06
2022-09-23T17:26:34.932Z,101066.72
2022-09-23T17:29:01.560Z,101054.75
2022-09-23T17:31:29.929Z,101056.22
2022-09-23T17:33:56.457Z,101056.69
2022-09-23T17:36:22.831Z,101059.31
2022-09-23T17:38:52.827Z,101065.03
2022-09-23T17:41:20.180Z,101052.75
2022-09-23T17:43:47.319Z,101057.78
2022-09-23T17:46:18.158Z,101056.16
2022-09-23T17:48:47.178Z,101067.31
2022-09-23T17:51:16.818Z,101064.34
2022-09-23T17:53:44.890Z,101065.97
2022-09-23T17:56:15.404Z,101065.97
2022-09-23T17:58:43.017Z,101068.28
2022-09-23T18:01:12.011Z,101059.84
2022-09-23T18:03:38.984Z,101053.56
2022-09-23T18:06:25.419Z,101060.78
2022-09-23T18:08:52.596Z,101061.25
2022-09-23T18:11:26.530Z,101053.25
2022-09-23T18:13:56.636Z,101058.44
2022-09-23T18:16:28.239Z,101054.63
2022-09-23T18:18:58.365Z,101060.34
2022-09-23T18:21:30.469Z,101059.19
2022-09-23T18:24:06.537Z,101057.19
2022-09-23T18:26:45.878Z,101053.75
2022-09-23T18:29:13.542Z,101052.75
2022-09-23T18:31:40.424Z,101057.63
2022-09-23T18:34:10.915Z,101053.25
2022-09-23T18:36:37.883Z,101051.09
2022-09-23T18:39:04.612Z,101048.69
2022-09-23T18:41:31.781Z,101053.22
2022-09-23T18:43:58.357Z,101039.22
2022-09-23T18:46:28.970Z,101047.94
2022-09-23T18:49:14.668Z,101039.63
2022-09-23T18:51:54.641Z,101036.63
2022-09-23T18:54:25.390Z,101038.94
2022-09-23T18:56:52.163Z,101045.97
2022-09-23T18:59:23.162Z,101040.84
2022-09-23T19:01:50.439Z,101039.41
2022-09-23T19:04:19.806Z,101047.41
2022-09-23T19:06:46.726Z,101045.56
2022-09-23T19:09:14.811Z,101038.84
2022-09-23T19:11:41.685Z,101039.84
2022-09-23T19:14:11.388Z,101034.84
2022-09-23T19:16:39.920Z,101044.25
2022-09-23T19:19:07.396Z,101038.47
2022-09-23T19:21:34.639Z,101038.41
2022-09-23T19:24:03.951Z,101040.13
2022-09-23T19:26:36.836Z,101041.22
2022-09-23T19:29:04.978Z,101039.91
2022-09-23T19:31:36.655Z,101039.47
2022-09-23T19:34:09.280Z,101037.13
2022-09-23T19:36:38.772Z,101037.38
2022-09-23T19:39:20.384Z,101044.22
2022-09-23T19:41:47.970Z,101030.38
2022-09-23T19:44:15.826Z,101031.06
2022-09-23T19:46:44.748Z,101036.34
2022-09-23T19:49:12.555Z,101041.44
2022-09-23T19:51:39.817Z,101033.81
2022-09-23T19:54:07.610Z,101039.16
2022-09-23T19:56:35.267Z,101031.84
2022-09-23T19:59:02.576Z,101035.38
2022-09-23T20:01:31.234Z,101025.59
2022-09-23T20:03:58.991Z,101031.88
2022-09-23T20:06:30.027Z,101033.63
2022-09-23T20:08:57.979Z,101029.06
2022-09-23T20:11:28.389Z,101029.44
2022-09-23T20:14:00.282Z,101018.94
2022-09-23T20:16:32.611Z,101015.53
2022-09-23T20:19:00.386Z,101020.13
2022-09-23T20:21:28.685Z,101017.09
2022-09-23T20:23:56.193Z,101016.16
2022-09-23T20:26:41.185Z,101012.88
2022-09-23T20:29:09.965Z,101009.47
2022-09-23T20:31:40.814Z,101010.09
2022-09-23T20:34:09.607Z,101015.69
2022-09-23T20:36:39.332Z,101013.84
2022-09-23T20:39:06.255Z,101010.72
2022-09-23T20:41:36.881Z,101007.97
2022-09-23T20:44:11.609Z,101009.28
2022-09-23T20:46:38.226Z,101011.91
2022-09-23T20:49:07.193Z,101006.88
2022-09-23T20:51:35.367Z,101007.78
2022-09-23T20:54:02.544Z,101001.66
2022-09-23T20:56:29.410Z,101004.69
2022-09-23T20:58:59.839Z,101010.78
2022-09-23T21:01:27.077Z,101011.94
2022-09-23T21:03:55.168Z,101011.84
2022-09-23T21:06:25.492Z,101013.00
2022-09-23T21:08:53.873Z,101001.69
2022-09-23T21:11:21.212Z,101010.53
2022-09-23T21:13:49.578Z,101014.56
2022-09-23T21:16:17.910Z,101016.13
2022-09-23T21:18:44.866Z,101009.00
2022-09-23T21:21:13.355Z,101012.25
2022-09-23T21:23:40.801Z,101005.84
2022-09-23T21:26:10.709Z,101006.97
2022-09-23T21:28:39.256Z,101011.09
2022-09-23T21:31:23.360Z,101009.38
2022-09-23T21:33:55.020Z,101012.38
2022-09-23T21:36:23.381Z,101014.50
2022-09-23T21:38:50.241Z,101005.59
2022-09-23T21:41:17.108Z,101002.31
2022-09-23T21:43:43.278Z,101002.41
2022-09-23T21:46:12.204Z,101005.03
2022-09-23T21:48:40.619Z,100999.91
2022-09-23T21:51:15.776Z,101009.91
2022-09-23T21:53:43.274Z,101003.47
2022-09-23T21:56:20.911Z,100996.19
2022-09-23T21:58:48.678Z,101006.50
2022-09-23T22:01:21.089Z,100989.56
2022-09-23T22:03:53.050Z,100992.84
2022-09-23T22:06:27.878Z,100990.84
2022-09-23T22:09:00.200Z,100988.59
2022-09-23T22:11:50.550Z,100988.84
2022-09-23T22:14:19.594Z,100984.00
2022-09-23T22:16:46.273Z,100980.28
2022-09-23T22:19:14.829Z,100981.44
2022-09-23T22:21:44.335Z,100979.28
2022-09-23T22:24:11.840Z,100978.97
2022-09-23T22:26:41.112Z,100981.44
2022-09-23T22:29:28.427Z,100971.44
2022-09-23T22:32:13.302Z,100976.69
2022-09-23T22:34:50.127Z,100975.41
2022-09-23T22:37:25.359Z,100975.69
2022-09-23T22:39:52.188Z,100973.38
2022-09-23T22:42:21.525Z,100975.00
2022-09-23T22:44:48.737Z,100975.53
2022-09-23T22:47:17.178Z,100969.34
2022-09-23T22:49:44.809Z,100960.13
2022-09-23T22:52:11.722Z,100967.25
2022-09-23T22:54:37.931Z,100969.72
2022-09-23T22:57:07.980Z,100971.00
2022-09-23T22:59:35.195Z,100972.84
2022-09-23T23:02:02.166Z,100965.72
2022-09-23T23:04:30.270Z,100971.28
2022-09-23T23:06:57.897Z,100970.97
2022-09-23T23:09:24.133Z,100967.34
2022-09-23T23:11:50.502Z,100963.13
2022-09-23T23:14:17.767Z,100955.88
2022-09-23T23:16:45.320Z,100959.50
2022-09-23T23:19:15.788Z,100954.22
2022-09-23T23:21:45.678Z,100958.63
2022-09-23T23:24:20.625Z,100950.66
2022-09-23T23:26:47.585Z,100953.56
2022-09-23T23:29:16.866Z,100959.41
2022-09-23T23:31:43.493Z,100955.09
2022-09-23T23:34:15.971Z,100947.41
2022-09-23T23:36:43.343Z,100944.69
2022-09-23T23:39:10.417Z,100944.38
2022-09-23T23:41:38.721Z,100948.41
2022-09-23T23:44:06.363Z,100949.09
2022-09-23T23:46:32.914Z,100945.84
2022-09-23T23:48:59.610Z,100949.56
2022-09-23T23:51:26.582Z,100946.00
2022-09-23T23:53:54.515Z,100953.00
2022-09-23T23:56:23.715Z,100938.44
2022-09-23T23:58:58.341Z,100941.81
